createdAt,value
2018-09-23T00:01:42.502Z,11.70
2018-09-23T00:04:10.856Z,11.60
2018-09-23T00:06:39.319Z,11.60
2018-09-23T00:09:08.311Z,11.60
2018-09-23T00:11:36.673Z,11.60
2018-09-23T00:14:05.042Z,11.60
2018-09-23T00:16:33.407Z,11.60
2018-09-23T00:19:01.727Z,11.60
2018-09-23T00:21:30.024Z,11.50
2018-09-23T00:23:58.545Z,11.50
2018-09-23T00:26:26.955Z,11.50
2018-09-23T00:28:55.326Z,11.50
2018-09-23T00:31:23.675Z,11.50
2018-09-23T00:33:52.151Z,11.50
2018-09-23T00:36:20.438Z,11.40
2018-09-23T00:38:48.758Z,11.40
2018-09-23T00:41:17.703Z,11.50
2018-09-23T00:43:46.026Z,11.50
2018-09-23T00:46:14.402Z,11.40
2018-09-23T00:48:42.776Z,11.40
2018-09-23T00:51:11.080Z,11.30
2018-09-23T00:53:39.386Z,11.30
2018-09-23T00:56:08.275Z,11.30
2018-09-23T00:58:36.674Z,11.30
2018-09-23T01:01:04.998Z,11.30
2018-09-23T01:03:33.343Z,11.30
2018-09-23T01:06:01.688Z,11.30
2018-09-23T01:08:29.991Z,11.30
2018-09-23T01:10:58.287Z,11.40
2018-09-23T01:13:26.635Z,11.30
2018-09-23T01:15:55.009Z,11.30
2018-09-23T01:18:23.464Z,11.30
2018-09-23T01:20:51.849Z,11.20
2018-09-23T01:23:20.186Z,11.20
2018-09-23T01:25:48.526Z,11.20
2018-09-23T01:28:17.056Z,11.20
2018-09-23T01:30:45.402Z,11.10
2018-09-23T01:33:13.666Z,11.10
2018-09-23T01:35:41.974Z,11.10
2018-09-23T01:38:10.272Z,11.00
2018-09-23T01:40:38.558Z,11.00
2018-09-23T01:43:07.139Z,11.00
2018-09-23T01:45:35.471Z,10.90
2018-09-23T01:48:03.879Z,10.90
2018-09-23T01:50:32.168Z,10.90
2018-09-23T01:53:00.480Z,10.80
2018-09-23T01:55:28.869Z,10.80
2018-09-23T01:57:57.171Z,10.80
2018-09-23T02:00:25.572Z,10.70
2018-09-23T02:02:53.937Z,10.70
2018-09-23T02:05:22.242Z,10.70
2018-09-23T02:07:50.734Z,10.70
2018-09-23T02:10:19.067Z,10.70
2018-09-23T02:12:47.412Z,10.60
2018-09-23T02:15:15.720Z,10.70
2018-09-23T02:17:44.662Z,10.60
2018-09-23T02:20:13.014Z,10.60
2018-09-23T02:22:41.389Z,10.60
2018-09-23T02:25:09.745Z,10.60
2018-09-23T02:27:38.068Z,10.70
2018-09-23T02:30:06.452Z,10.60
2018-09-23T02:32:34.786Z,10.70
2018-09-23T02:35:03.119Z,10.70
2018-09-23T02:37:31.398Z,10.70
2018-09-23T02:39:59.728Z,10.60
2018-09-23T02:42:28.032Z,10.60
2018-09-23T02:44:56.487Z,10.60
2018-09-23T02:47:24.856Z,10.60
2018-09-23T02:49:53.179Z,10.60
2018-09-23T02:52:21.607Z,10.60
2018-09-23T02:54:49.989Z,10.50
2018-09-23T02:57:18.325Z,10.50
2018-09-23T02:59:46.691Z,10.50
2018-09-23T03:02:15.082Z,10.50
2018-09-23T03:04:43.377Z,10.50
2018-09-23T03:07:11.756Z,10.50
2018-09-23T03:09:40.127Z,10.50
2018-09-23T03:12:08.423Z,10.50
2018-09-23T03:14:36.786Z,10.50
2018-09-23T03:17:05.181Z,10.50
2018-09-23T03:19:33.485Z,10.50
2018-09-23T03:22:01.822Z,10.50
2018-09-23T03:24:30.245Z,10.40
2018-09-23T03:26:58.517Z,10.40
2018-09-23T03:29:26.838Z,10.30
2018-09-23T03:31:55.171Z,10.30
2018-09-23T03:34:23.652Z,10.40
2018-09-23T03:36:51.996Z,10.30
2018-09-23T03:39:20.391Z,10.30
2018-09-23T03:41:48.726Z,10.30
2018-09-23T03:44:17.035Z,10.20
2018-09-23T03:46:45.371Z,10.20
2018-09-23T03:49:13.650Z,10.20
2018-09-23T03:51:41.994Z,10.20
2018-09-23T03:54:12.306Z,10.20
2018-09-23T03:56:41.434Z,10.20
2018-09-23T03:59:09.718Z,10.20
2018-09-23T04:01:38.192Z,10.20
2018-09-23T04:04:07.127Z,10.20
2018-09-23T04:06:35.503Z,10.20
2018-09-23T04:09:05.171Z,10.20
2018-09-23T04:11:33.473Z,10.30
2018-09-23T04:14:01.884Z,10.30
2018-09-23T04:16:30.209Z,10.30
2018-09-23T04:18:58.576Z,10.40
2018-09-23T04:21:26.875Z,10.40
2018-09-23T04:23:55.227Z,10.40
2018-09-23T04:26:23.565Z,10.50
2018-09-23T04:28:51.957Z,10.50
2018-09-23T04:31:20.239Z,10.50
2018-09-23T04:33:48.574Z,10.60
2018-09-23T04:36:16.863Z,10.60
2018-09-23T04:38:45.206Z,10.60
2018-09-23T04:41:13.537Z,10.70
2018-09-23T04:43:41.907Z,10.70
2018-09-23T04:46:10.596Z,10.70
2018-09-23T04:48:38.918Z,10.70
2018-09-23T04:51:07.264Z,10.80
2018-09-23T04:53:35.645Z,10.70
2018-09-23T04:56:04.152Z,10.80
2018-09-23T04:58:32.541Z,10.80
2018-09-23T05:01:00.908Z,10.80
2018-09-23T05:03:29.231Z,10.80
2018-09-23T05:05:57.611Z,10.80
2018-09-23T05:08:26.026Z,10.80
2018-09-23T05:10:54.344Z,10.80
2018-09-23T05:13:22.724Z,10.80
2018-09-23T05:15:50.999Z,10.80
2018-09-23T05:18:19.283Z,10.90
2018-09-23T05:20:47.637Z,11.00
2018-09-23T05:23:15.974Z,11.00
2018-09-23T05:25:44.295Z,11.00
2018-09-23T05:28:12.678Z,11.00
2018-09-23T05:30:41.032Z,11.00
2018-09-23T05:33:09.355Z,11.00
2018-09-23T05:35:37.824Z,11.10
2018-09-23T05:38:06.435Z,11.10
2018-09-23T05:40:34.788Z,11.00
2018-09-23T05:43:03.140Z,11.10
2018-09-23T05:45:31.472Z,11.10
2018-09-23T05:47:59.785Z,11.10
2018-09-23T05:50:28.099Z,11.10
2018-09-23T05:52:56.455Z,11.10
2018-09-23T05:55:25.284Z,11.20
2018-09-23T05:57:53.602Z,11.30
2018-09-23T06:00:21.908Z,11.40
2018-09-23T06:02:50.250Z,11.50
2018-09-23T06:05:18.599Z,11.60
2018-09-23T06:07:46.959Z,11.60
2018-09-23T06:10:15.246Z,11.70
2018-09-23T06:12:43.597Z,11.80
2018-09-23T06:15:11.903Z,11.70
2018-09-23T06:17:40.250Z,11.70
2018-09-23T06:20:08.622Z,11.70
2018-09-23T06:22:37.117Z,11.80
2018-09-23T06:25:05.617Z,11.90
2018-09-23T06:27:43.851Z,11.80
2018-09-23T06:30:12.200Z,11.90
2018-09-23T06:32:40.562Z,11.90
2018-09-23T06:35:08.937Z,11.90
2018-09-23T06:37:37.261Z,12.10
2018-09-23T06:40:05.890Z,12.10
2018-09-23T06:42:34.265Z,12.20
2018-09-23T06:45:02.639Z,12.20
2018-09-23T06:47:30.995Z,12.30
2018-09-23T06:49:59.430Z,12.30
2018-09-23T06:52:27.861Z,12.30
2018-09-23T06:54:56.243Z,12.20
2018-09-23T06:57:38.002Z,12.30
2018-09-23T07:00:06.881Z,12.30
2018-09-23T07:02:35.344Z,12.30
2018-09-23T07:05:03.694Z,12.40
2018-09-23T07:07:32.123Z,12.40
2018-09-23T07:10:00.785Z,12.40
2018-09-23T07:12:29.095Z,12.40
2018-09-23T07:14:57.611Z,12.50
2018-09-23T07:17:25.914Z,12.70
2018-09-23T07:19:54.823Z,12.90
2018-09-23T07:22:23.228Z,13.00
2018-09-23T07:24:51.808Z,13.10
2018-09-23T07:27:20.162Z,13.20
2018-09-23T07:29:48.762Z,13.00
2018-09-23T07:32:17.283Z,13.00
2018-09-23T07:34:45.719Z,13.00
2018-09-23T07:37:14.263Z,12.90
2018-09-23T07:39:42.699Z,12.90
2018-09-23T07:42:11.039Z,13.10
2018-09-23T07:44:39.550Z,13.20
2018-09-23T07:47:07.934Z,13.20
2018-09-23T07:49:36.292Z,13.50
2018-09-23T07:52:04.688Z,13.50
2018-09-23T07:54:33.043Z,13.40
2018-09-23T07:57:03.649Z,13.40
2018-09-23T07:59:32.012Z,13.30
2018-09-23T08:02:00.403Z,13.40
2018-09-23T08:04:28.904Z,13.60
2018-09-23T08:06:57.367Z,13.70
2018-09-23T08:09:25.877Z,13.90
2018-09-23T20:31:46.773Z,14.20
2018-09-23T20:34:15.185Z,9.10
2018-09-23T20:36:43.628Z,9.00
2018-09-23T20:39:12.550Z,9.10
2018-09-23T20:41:41.081Z,9.10
2018-09-23T20:44:09.803Z,9.10
2018-09-23T20:46:38.205Z,9.10
2018-09-23T20:49:06.695Z,9.10
2018-09-23T20:51:35.313Z,9.10
2018-09-23T20:54:04.249Z,9.10
2018-09-23T20:56:33.346Z,9.00
2018-09-23T20:59:01.797Z,9.00
2018-09-23T21:01:30.968Z,9.10
2018-09-23T21:04:02.625Z,9.10
2018-09-23T21:06:31.253Z,9.10
2018-09-23T21:08:59.752Z,9.10
2018-09-23T21:11:28.774Z,9.00
